createdAt,value
2022-09-16T00:00:27.877Z,3.33
2022-09-16T00:02:55.020Z,3.38
2022-09-16T00:05:21.823Z,3.72
2022-09-16T00:07:48.648Z,3.42
2022-09-16T00:10:15.452Z,3.20
2022-09-16T00:12:42.284Z,3.13
2022-09-16T00:15:10.149Z,3.55
2022-09-16T00:17:37.993Z,3.00
2022-09-16T00:20:06.079Z,3.53
2022-09-16T00:22:32.966Z,3.40
2022-09-16T00:24:59.800Z,3.80
2022-09-16T00:27:26.767Z,4.57
2022-09-16T00:29:53.804Z,4.65
2022-09-16T00:32:20.719Z,4.38
2022-09-16T00:34:47.550Z,5.00
2022-09-16T00:37:14.290Z,4.93
2022-09-16T00:39:41.113Z,4.63
2022-09-16T00:42:11.135Z,5.30
2022-09-16T00:44:58.043Z,5.53
2022-09-16T00:47:30.311Z,5.22
2022-09-16T00:49:59.534Z,5.33
2022-09-16T00:52:27.056Z,5.15
2022-09-16T00:54:53.781Z,5.18
2022-09-16T00:57:20.555Z,4.97
2022-09-16T00:59:49.275Z,5.53
2022-09-16T01:02:17.419Z,5.32
2022-09-16T01:04:52.733Z,5.22
2022-09-16T01:07:44.311Z,4.88
2022-09-16T01:10:12.772Z,5.35
2022-09-16T01:12:39.655Z,5.10
2022-09-16T01:15:06.768Z,5.10
2022-09-16T01:17:45.479Z,4.90
2022-09-16T01:20:39.311Z,4.65
2022-09-16T01:23:27.608Z,4.75
2022-09-16T01:26:03.320Z,4.43
2022-09-16T01:29:04.223Z,5.40
2022-09-16T01:31:43.169Z,4.97
2022-09-16T01:34:47.804Z,4.88
2022-09-16T01:37:36.862Z,4.45
2022-09-16T01:40:33.461Z,4.32
2022-09-16T01:43:25.776Z,4.95
2022-09-16T01:46:21.406Z,4.75
2022-09-16T01:49:00.805Z,4.88
2022-09-16T01:52:05.925Z,4.90
2022-09-16T01:54:41.558Z,5.82
2022-09-16T01:57:22.155Z,5.07
2022-09-16T01:59:50.562Z,5.10
2022-09-16T02:02:23.944Z,5.75
2022-09-16T02:04:54.661Z,5.68
2022-09-16T02:07:23.531Z,5.82
2022-09-16T02:09:53.039Z,5.90
2022-09-16T02:12:22.476Z,6.03
2022-09-16T02:14:49.234Z,6.07
2022-09-16T02:17:17.942Z,6.20
2022-09-16T02:20:11.268Z,7.35
2022-09-16T02:22:43.734Z,6.47
2022-09-16T02:25:10.998Z,6.22
2022-09-16T02:27:38.255Z,6.90
2022-09-16T02:30:10.497Z,6.50
2022-09-16T02:32:42.366Z,6.43
2022-09-16T02:35:10.268Z,6.18
2022-09-16T02:37:47.329Z,7.03
2022-09-16T02:40:25.213Z,6.38
2022-09-16T02:42:52.280Z,6.40
2022-09-16T02:45:21.109Z,6.63
2022-09-16T02:48:04.471Z,5.97
2022-09-16T02:53:15.004Z,6.20
2022-09-16T02:55:47.593Z,6.13
2022-09-16T02:58:14.314Z,6.18
2022-09-16T03:00:44.777Z,5.93
2022-09-16T03:03:11.516Z,6.07
2022-09-16T03:05:39.871Z,6.20
2022-09-16T03:08:07.316Z,6.28
2022-09-16T03:10:39.570Z,6.90
2022-09-16T03:13:12.401Z,7.47
2022-09-16T03:15:59.373Z,7.50
2022-09-16T03:18:26.118Z,7.72
2022-09-16T03:21:10.785Z,7.38
2022-09-16T03:23:53.197Z,7.57
2022-09-16T03:26:38.858Z,7.00
2022-09-16T03:29:45.788Z,7.40
2022-09-16T03:32:18.419Z,8.48
2022-09-16T03:34:46.179Z,8.43
2022-09-16T03:37:15.233Z,8.38
2022-09-16T03:39:50.843Z,8.52
2022-09-16T03:42:17.651Z,8.68
2022-09-16T03:44:44.399Z,8.82
2022-09-16T03:47:11.496Z,8.43
2022-09-16T03:49:52.465Z,8.77
2022-09-16T03:52:28.275Z,7.70
2022-09-16T03:55:11.266Z,8.32
2022-09-16T03:57:50.186Z,8.32
2022-09-16T04:00:34.667Z,8.70
2022-09-16T04:03:16.212Z,7.93
2022-09-16T04:06:06.878Z,8.73
2022-09-16T04:08:48.983Z,8.40
2022-09-16T04:11:25.083Z,8.48
2022-09-16T04:14:02.487Z,8.57
2022-09-16T04:16:37.408Z,8.23
2022-09-16T04:19:19.323Z,8.55
2022-09-16T04:22:05.129Z,8.52
2022-09-16T04:24:44.225Z,9.55
2022-09-16T04:27:28.243Z,8.15
2022-09-16T04:30:06.349Z,8.52
2022-09-16T04:32:44.930Z,8.48
2022-09-16T04:35:14.905Z,8.57
2022-09-16T04:37:41.662Z,7.85
2022-09-16T04:40:11.689Z,8.25
2022-09-16T04:42:38.480Z,7.95
2022-09-16T04:45:05.973Z,8.25
2022-09-16T04:47:33.190Z,8.05
2022-09-16T04:49:59.934Z,7.80
2022-09-16T04:52:27.069Z,7.65
2022-09-16T04:54:53.887Z,7.80
2022-09-16T04:57:20.692Z,7.65
2022-09-16T04:59:47.427Z,7.50
2022-09-16T05:02:14.337Z,7.28
2022-09-16T05:04:41.213Z,8.00
2022-09-16T05:07:09.175Z,7.85
2022-09-16T05:09:37.637Z,8.02
2022-09-16T05:12:04.596Z,7.93
2022-09-16T05:14:31.488Z,7.45
2022-09-16T05:16:58.307Z,7.07
2022-09-16T05:19:25.203Z,6.80
2022-09-16T05:21:52.005Z,6.78
2022-09-16T05:24:18.757Z,6.40
2022-09-16T05:26:45.506Z,6.15
2022-09-16T05:29:15.649Z,7.05
2022-09-16T05:31:45.207Z,6.57
2022-09-16T05:34:19.838Z,5.97
2022-09-16T05:36:48.009Z,5.95
2022-09-16T05:39:26.227Z,5.70
2022-09-16T05:41:57.279Z,5.53
2022-09-16T05:44:24.643Z,6.07
2022-09-16T05:46:51.752Z,5.75
2022-09-16T05:49:21.009Z,5.30
2022-09-16T05:51:51.087Z,5.43
2022-09-16T05:54:20.840Z,5.07
2022-09-16T05:56:47.758Z,5.35
2022-09-16T05:59:14.851Z,5.40
2022-09-16T06:01:41.734Z,5.57
2022-09-16T06:04:11.015Z,5.30
2022-09-16T06:06:39.330Z,5.57
2022-09-16T06:09:17.140Z,5.30
2022-09-16T06:11:45.992Z,5.20
2022-09-16T06:14:13.286Z,5.40
2022-09-16T06:16:40.255Z,5.30
2022-09-16T06:19:10.601Z,5.07
2022-09-16T06:21:39.313Z,4.68
2022-09-16T06:24:09.300Z,5.18
2022-09-16T06:26:37.591Z,5.13
2022-09-16T06:29:05.772Z,4.90
2022-09-16T06:31:32.706Z,4.85
2022-09-16T06:33:59.833Z,4.43
2022-09-16T06:36:40.337Z,4.70
2022-09-16T06:39:11.864Z,4.97
2022-09-16T06:41:39.678Z,4.15
2022-09-16T06:44:06.528Z,4.53
2022-09-16T06:46:33.579Z,3.72
2022-09-16T06:49:04.509Z,3.97
2022-09-16T06:51:32.950Z,3.70
2022-09-16T06:54:01.751Z,4.00
2022-09-16T06:56:30.879Z,3.33
2022-09-16T06:59:00.902Z,3.65
2022-09-16T07:01:29.632Z,3.20
2022-09-16T07:03:57.750Z,3.60
2022-09-16T07:06:44.927Z,3.85
2022-09-16T07:09:12.519Z,3.83
2022-09-16T07:11:40.787Z,3.63
2022-09-16T07:14:09.435Z,3.80
2022-09-16T07:16:39.508Z,3.22
2022-09-16T07:19:06.402Z,3.40
2022-09-16T07:21:33.205Z,3.22
2022-09-16T07:24:01.277Z,3.40
2022-09-16T07:26:30.237Z,3.63
2022-09-16T07:28:59.694Z,3.17
2022-09-16T07:31:28.413Z,3.38
2022-09-16T07:34:01.292Z,3.20
2022-09-16T07:36:33.724Z,3.20
2022-09-16T07:39:00.692Z,3.28
2022-09-16T07:41:35.439Z,4.05
2022-09-16T07:44:02.786Z,3.08
2022-09-16T07:46:31.004Z,2.70
2022-09-16T07:48:58.562Z,3.13
2022-09-16T07:51:25.751Z,3.00
2022-09-16T07:53:58.602Z,2.90
2022-09-16T07:56:26.886Z,3.72
2022-09-16T07:58:54.673Z,2.78
2022-09-16T08:01:21.815Z,3.03
2022-09-16T08:03:49.089Z,3.15
2022-09-16T08:06:29.432Z,3.38
2022-09-16T08:09:36.860Z,3.30
2022-09-16T08:12:08.304Z,3.15
2022-09-16T08:14:56.826Z,3.55
2022-09-16T08:17:41.915Z,3.28
2022-09-16T08:20:28.951Z,3.42
2022-09-16T08:23:15.277Z,3.60
2022-09-16T08:25:59.380Z,3.83
2022-09-16T08:28:57.532Z,3.70
2022-09-16T08:31:39.244Z,3.60
2022-09-16T08:34:17.312Z,3.38
2022-09-16T08:36:59.115Z,3.47
2022-09-16T08:39:40.432Z,3.40
2022-09-16T08:42:24.863Z,3.17
2022-09-16T08:45:13.658Z,3.40
2022-09-16T08:48:08.786Z,3.10
2022-09-16T08:50:48.396Z,3.00
2022-09-16T08:53:53.083Z,3.22
2022-09-16T08:56:34.337Z,2.90
2022-09-16T08:59:14.785Z,3.15
2022-09-16T09:02:03.912Z,3.70
2022-09-16T09:04:45.369Z,2.90
2022-09-16T09:07:33.863Z,2.90
2022-09-16T09:10:35.287Z,2.85
2022-09-16T09:13:43.442Z,2.95
2022-09-16T09:16:35.493Z,3.28
2022-09-16T09:19:24.289Z,3.15
2022-09-16T09:22:12.380Z,3.00
2022-09-16T09:25:07.378Z,3.38
2022-09-16T09:28:30.195Z,3.22
2022-09-16T09:31:18.070Z,3.13
2022-09-16T09:34:34.169Z,3.50
2022-09-16T09:37:23.954Z,3.55
2022-09-16T09:40:31.193Z,3.17
2022-09-16T09:43:44.870Z,3.55
2022-09-16T09:46:29.175Z,4.22
2022-09-16T09:49:46.939Z,3.75
2022-09-16T09:52:44.342Z,3.78
2022-09-16T09:55:21.013Z,3.63
2022-09-16T09:58:01.783Z,4.00
2022-09-16T10:00:28.817Z,4.00
2022-09-16T10:03:06.690Z,4.53
2022-09-16T10:05:33.913Z,4.45
2022-09-16T10:08:23.966Z,5.15
2022-09-16T10:10:59.619Z,5.28
2022-09-16T10:13:27.301Z,4.80
2022-09-16T10:15:55.964Z,5.28
2022-09-16T10:18:27.087Z,5.85
2022-09-16T10:21:14.810Z,6.15
2022-09-16T10:23:41.619Z,6.18
2022-09-16T10:26:21.726Z,5.50
2022-09-16T10:29:01.733Z,5.47
2022-09-16T10:31:40.555Z,5.47
2022-09-16T10:34:33.921Z,5.43
2022-09-16T10:39:30.549Z,5.05
2022-09-16T10:41:57.363Z,5.85
2022-09-16T10:44:25.937Z,6.20
2022-09-16T10:47:03.028Z,6.05
2022-09-16T10:49:47.798Z,5.78
2022-09-16T10:52:31.193Z,5.75
2022-09-16T10:54:58.168Z,6.60
2022-09-16T10:57:30.441Z,5.70
2022-09-16T11:00:18.417Z,5.82
2022-09-16T11:03:24.883Z,6.35
2022-09-16T11:05:51.631Z,5.57
2022-09-16T11:08:30.679Z,5.75
2022-09-16T11:11:11.095Z,6.13
2022-09-16T11:13:44.756Z,5.68
2022-09-16T11:16:48.325Z,5.55
2022-09-16T11:19:36.522Z,5.75
2022-09-16T11:22:10.688Z,5.38
2022-09-16T11:24:58.908Z,5.32
2022-09-16T11:27:56.909Z,6.35
2022-09-16T11:30:23.743Z,5.53
2022-09-16T11:33:03.326Z,5.25
2022-09-16T11:36:07.255Z,5.07
2022-09-16T11:41:20.611Z,4.88
2022-09-16T11:44:09.058Z,5.00
2022-09-16T11:47:17.453Z,4.80
2022-09-16T11:50:16.045Z,4.63
2022-09-16T11:52:47.786Z,5.07
2022-09-16T11:55:18.394Z,5.18
2022-09-16T11:57:48.835Z,4.32
2022-09-16T12:00:17.345Z,4.47
2022-09-16T12:02:59.517Z,4.68
2022-09-16T12:05:36.714Z,4.50
2022-09-16T12:08:22.987Z,4.57
2022-09-16T12:10:57.231Z,4.30
2022-09-16T12:13:28.518Z,4.00
2022-09-16T12:15:59.342Z,3.80
2022-09-16T12:18:42.966Z,4.00
2022-09-16T12:21:33.713Z,4.50
2022-09-16T12:24:06.531Z,4.22
2022-09-16T12:26:34.909Z,4.57
2022-09-16T12:29:28.430Z,3.67
2022-09-16T12:32:06.464Z,3.75
2022-09-16T12:34:53.377Z,3.50
2022-09-16T12:37:34.202Z,3.90
2022-09-16T12:40:01.835Z,4.00
2022-09-16T12:42:37.583Z,4.22
2022-09-16T12:45:16.354Z,3.78
2022-09-16T12:48:11.216Z,4.05
2022-09-16T12:51:01.534Z,3.83
2022-09-16T12:53:53.098Z,4.28
2022-09-16T12:56:28.921Z,3.85
2022-09-16T12:59:20.614Z,4.50
2022-09-16T13:01:50.800Z,3.75
2022-09-16T13:04:27.752Z,3.90
2022-09-16T13:06:58.272Z,3.90
2022-09-16T13:09:36.301Z,4.70
2022-09-16T13:12:40.873Z,4.03
2022-09-16T13:15:08.311Z,4.03
2022-09-16T13:17:37.101Z,3.72
2022-09-16T13:20:13.318Z,4.22
2022-09-16T13:22:58.791Z,4.05
2022-09-16T13:25:28.632Z,4.32
2022-09-16T13:28:22.526Z,3.95
2022-09-16T13:30:49.322Z,4.53
2022-09-16T13:33:20.828Z,4.10
2022-09-16T13:35:49.872Z,3.50
2022-09-16T13:38:19.786Z,4.10
2022-09-16T13:40:57.518Z,3.63
2022-09-16T13:43:34.745Z,4.10
2022-09-16T13:46:03.744Z,4.30
2022-09-16T13:48:33.259Z,3.78
2022-09-16T13:51:00.453Z,4.28
2022-09-16T13:53:45.105Z,3.90
2022-09-16T13:56:24.135Z,4.40
2022-09-16T13:59:01.544Z,4.20
2022-09-16T14:01:56.001Z,4.45
2022-09-16T14:05:13.766Z,4.53
2022-09-16T14:07:46.725Z,4.40
2022-09-16T14:13:11.173Z,4.25
2022-09-16T14:16:00.045Z,4.28
2022-09-16T14:18:29.865Z,4.78
2022-09-16T14:20:56.622Z,3.58
2022-09-16T14:23:24.442Z,4.10
2022-09-16T14:25:52.306Z,4.05
2022-09-16T14:28:26.826Z,4.82
2022-09-16T14:30:58.270Z,4.07
2022-09-16T14:33:36.100Z,3.75
2022-09-16T14:36:14.861Z,4.25
2022-09-16T14:38:46.399Z,4.35
2022-09-16T14:41:27.028Z,4.25
2022-09-16T14:43:53.834Z,4.15
2022-09-16T14:46:20.663Z,3.90
2022-09-16T14:48:47.470Z,4.38
2022-09-16T14:51:23.392Z,3.58
2022-09-16T14:54:15.493Z,4.20
2022-09-16T14:56:42.459Z,3.95
2022-09-16T14:59:12.873Z,4.32
2022-09-16T15:01:39.702Z,3.85
2022-09-16T15:04:16.332Z,4.38
2022-09-16T15:06:48.396Z,4.32
2022-09-16T15:09:43.080Z,4.05
2022-09-16T15:12:29.527Z,4.15
2022-09-16T15:14:56.824Z,3.63
2022-09-16T15:17:26.039Z,4.10
2022-09-16T15:19:56.854Z,3.85
2022-09-16T15:22:23.753Z,3.72
2022-09-16T15:24:53.096Z,4.30
2022-09-16T15:27:28.927Z,3.88
2022-09-16T15:30:00.006Z,4.07
2022-09-16T15:32:31.952Z,3.80
2022-09-16T15:35:20.562Z,4.20
2022-09-16T15:37:48.468Z,3.95
2022-09-16T15:40:31.854Z,4.60
2022-09-16T15:43:10.514Z,4.18
2022-09-16T15:45:39.137Z,4.70
2022-09-16T15:48:25.808Z,4.35
2022-09-16T15:51:00.069Z,4.50
2022-09-16T15:53:29.975Z,3.97
2022-09-16T15:56:04.808Z,3.95
2022-09-16T15:58:44.573Z,4.50
2022-09-16T16:01:21.947Z,4.40
2022-09-16T16:03:54.178Z,4.13
2022-09-16T16:06:22.094Z,3.87
2022-09-16T16:08:52.621Z,4.00
2022-09-16T16:11:20.751Z,4.57
2022-09-16T16:13:47.807Z,4.72
2022-09-16T16:16:15.272Z,4.55
2022-09-16T16:18:43.010Z,4.70
2022-09-16T16:21:14.305Z,4.65
2022-09-16T16:23:43.968Z,5.00
2022-09-16T16:26:11.236Z,4.93
2022-09-16T16:28:38.709Z,4.97
2022-09-16T16:31:16.062Z,4.80
2022-09-16T16:33:44.989Z,5.05
2022-09-16T16:36:15.825Z,4.47
2022-09-16T16:38:42.775Z,5.57
2022-09-16T16:41:10.719Z,5.00
2022-09-16T16:43:38.715Z,4.95
2022-09-16T16:46:05.694Z,5.53
2022-09-16T16:48:32.538Z,5.10
2022-09-16T16:51:01.372Z,6.03
2022-09-16T16:53:28.814Z,5.05
2022-09-16T16:56:02.185Z,5.78
2022-09-16T16:58:35.571Z,5.82
2022-09-16T17:01:13.331Z,5.72
2022-09-16T17:03:40.736Z,6.28
2022-09-16T17:06:07.776Z,6.28
2022-09-16T17:08:35.372Z,5.88
2022-09-16T17:11:10.311Z,6.15
2022-09-16T17:13:44.521Z,6.30
2022-09-16T17:16:12.742Z,6.63
2022-09-16T17:18:40.335Z,6.40
2022-09-16T17:21:15.600Z,7.15
2022-09-16T17:23:42.669Z,6.85
2022-09-16T17:26:09.946Z,6.57
2022-09-16T17:28:39.485Z,6.22
2022-09-16T17:31:20.635Z,6.53
2022-09-16T17:34:03.620Z,5.40
2022-09-16T17:36:47.445Z,4.95
2022-09-16T17:39:33.327Z,5.10
2022-09-16T17:42:15.644Z,5.47
2022-09-16T17:44:54.509Z,4.30
2022-09-16T17:47:39.438Z,5.28
2022-09-16T17:50:23.204Z,4.20
2022-09-16T17:53:02.845Z,4.55
2022-09-16T17:55:41.769Z,4.38
2022-09-16T17:58:23.375Z,4.10
2022-09-16T18:01:06.837Z,3.40
2022-09-16T18:03:53.515Z,3.83
2022-09-16T18:06:52.114Z,3.65
2022-09-16T18:09:38.948Z,3.97
2022-09-16T18:12:11.694Z,3.97
2022-09-16T18:14:51.011Z,3.92
2022-09-16T18:17:32.059Z,3.50
2022-09-16T18:20:15.545Z,4.50
2022-09-16T18:22:55.733Z,3.35
2022-09-16T18:25:44.730Z,3.97
2022-09-16T18:28:20.724Z,3.83
2022-09-16T18:31:18.373Z,3.83
2022-09-16T18:34:03.479Z,4.30
2022-09-16T18:36:46.272Z,4.50
2022-09-16T18:39:25.726Z,4.60
2022-09-16T18:42:06.647Z,3.63
2022-09-16T18:44:43.628Z,4.38
2022-09-16T18:47:29.114Z,4.32
2022-09-16T18:50:12.211Z,4.15
2022-09-16T18:52:52.498Z,4.07
2022-09-16T18:55:24.102Z,3.58
2022-09-16T18:58:03.055Z,4.07
2022-09-16T19:00:41.151Z,4.80
2022-09-16T19:03:15.958Z,5.63
2022-09-16T19:05:57.506Z,5.10
2022-09-16T19:08:47.768Z,5.07
2022-09-16T19:11:26.970Z,5.03
2022-09-16T19:14:05.660Z,4.78
2022-09-16T19:16:48.469Z,4.43
2022-09-16T19:19:29.043Z,4.22
2022-09-16T19:22:13.518Z,4.20
2022-09-16T19:24:59.902Z,3.72
2022-09-16T19:27:40.666Z,3.85
2022-09-16T19:30:20.579Z,4.40
2022-09-16T19:33:18.149Z,4.10
2022-09-16T19:35:55.287Z,4.28
2022-09-16T19:38:38.552Z,4.22
2022-09-16T19:41:16.600Z,3.95
2022-09-16T19:44:05.393Z,4.13
2022-09-16T19:46:47.159Z,3.92
2022-09-16T19:49:30.975Z,4.18
2022-09-16T19:52:10.754Z,4.20
2022-09-16T19:54:50.911Z,4.55
2022-09-16T19:57:34.531Z,4.03
2022-09-16T20:00:41.339Z,4.30
2022-09-16T20:03:24.976Z,4.72
2022-09-16T20:06:27.956Z,4.18
2022-09-16T20:09:20.035Z,3.70
2022-09-16T20:11:56.703Z,4.03
2022-09-16T20:14:42.720Z,4.72
2022-09-16T20:17:27.567Z,4.25
2022-09-16T20:20:06.553Z,4.30
2022-09-16T20:22:45.565Z,4.28
2022-09-16T20:25:26.211Z,4.07
2022-09-16T20:28:09.825Z,3.97
2022-09-16T20:30:55.853Z,4.25
2022-09-16T20:33:33.372Z,4.30
2022-09-16T20:36:19.577Z,4.55
2022-09-16T20:39:03.720Z,3.63
2022-09-16T20:41:42.858Z,4.55
2022-09-16T20:44:26.437Z,4.35
2022-09-16T20:47:10.141Z,4.43
2022-09-16T20:49:46.666Z,4.60
2022-09-16T20:52:23.745Z,4.18
2022-09-16T20:55:09.452Z,4.18
2022-09-16T20:57:48.897Z,4.70
2022-09-16T21:00:34.722Z,3.50
2022-09-16T21:03:16.694Z,4.65
2022-09-16T21:05:57.568Z,4.20
2022-09-16T21:08:39.105Z,4.68
2022-09-16T21:11:30.583Z,4.47
2022-09-16T21:14:15.618Z,4.25
2022-09-16T21:16:57.488Z,5.10
2022-09-16T21:19:36.712Z,4.75
2022-09-16T21:22:20.955Z,4.15
2022-09-16T21:24:56.796Z,4.15
2022-09-16T21:27:32.543Z,4.18
2022-09-16T21:30:16.731Z,4.53
2022-09-16T21:32:58.711Z,3.78
